LESB

Son Bonet Aerodrome

Airport
ICAO code
LESB
Summary
ICAO Region
EUR
ICAO Territory
Location

Palma de Mallorca, Baleariac Islands,

Serving
Palma de Mallorca
Elevation
135 ft
Coordinates
39° 35' 56" N , 2° 42' 10" E
KCC
Metar
Observation
LESB 050000Z AUTO 35005KT 9999 FEW023/// 11/10 Q1015
Station
Son Bonet Aerodrome
Date/Time
2022-12-05 00:00:00
Wind direction
350°
Wind speed
05 kts
Lowest cloud amount
few clouds
Temperature
11°C
Dew point
10°C
Humidity
93%
QNH
1015 hPa
Weather condition
n/a

Description

Son Bonet Aerodrome, primarily used for general and leisure aviation.

Climatology

Dry-summer subtropical ”Mediterranean" climate (Köppen climate classification Csa) - characterized by hot, dry summers and mild winters. During the summer, subtropical high pressure cells dominate, making rainfall unlikely except for the occasional thunderstorm. In the winter, periodic storms bring rain (snow at higher elevations).

Runways

Designator Length Width Surface Rops
6/24 1000 22 ASP No/No

Airport map

Aerial View

SKYbrary Partners:

Safety knowledge contributed by: